createdAt,value
2018-02-23T00:00:22.202Z,20.50
2018-02-23T00:01:22.202Z,20.50
2018-02-23T00:02:22.208Z,20.90
2018-02-23T00:03:22.210Z,19.40
2018-02-23T00:04:22.245Z,20.40
2018-02-23T00:05:22.208Z,21.20
2018-02-23T00:06:22.219Z,21.10
2018-02-23T00:07:22.210Z,20.90
2018-02-23T00:08:22.207Z,20.70
2018-02-23T00:09:22.211Z,21.70
2018-02-23T00:10:22.214Z,21.20
2018-02-23T00:11:22.212Z,21.30
2018-02-23T00:12:22.212Z,21.90
2018-02-23T00:13:22.213Z,21.00
2018-02-23T00:14:22.212Z,20.80
2018-02-23T00:15:22.213Z,21.40
2018-02-23T00:16:22.217Z,21.00
2018-02-23T00:17:22.213Z,21.20
2018-02-23T00:18:22.222Z,20.50
2018-02-23T00:19:22.218Z,20.50
2018-02-23T00:20:22.217Z,21.00
2018-02-23T00:21:22.227Z,20.50
2018-02-23T00:22:22.235Z,20.80
2018-02-23T00:23:22.222Z,21.10
2018-02-23T00:24:22.220Z,20.50
2018-02-23T00:25:22.222Z,20.80
2018-02-23T00:26:22.227Z,21.00
2018-02-23T00:27:22.224Z,21.20
2018-02-23T00:28:22.228Z,20.40
2018-02-23T00:29:22.226Z,21.20
2018-02-23T00:30:22.226Z,21.00
2018-02-23T00:31:22.231Z,21.10
2018-02-23T00:32:22.227Z,21.70
2018-02-23T00:33:22.229Z,22.10
2018-02-23T00:34:22.238Z,21.60
2018-02-23T00:35:22.230Z,21.50
2018-02-23T00:36:22.235Z,22.50
2018-02-23T00:37:22.236Z,21.80
2018-02-23T00:38:22.238Z,21.70
2018-02-23T00:39:22.248Z,21.80
2018-02-23T00:40:22.236Z,22.00
2018-02-23T00:41:22.247Z,22.40
2018-02-23T00:42:22.243Z,23.10
2018-02-23T00:43:22.247Z,22.50
2018-02-23T00:44:22.238Z,22.80
2018-02-23T00:45:22.238Z,22.80
2018-02-23T00:46:22.246Z,22.70
2018-02-23T00:47:22.246Z,21.80
2018-02-23T00:48:22.247Z,23.20
2018-02-23T00:49:22.243Z,22.80
2018-02-23T00:50:22.249Z,23.30
2018-02-23T00:51:22.245Z,22.60
2018-02-23T00:52:22.251Z,22.90
2018-02-23T00:53:22.248Z,24.40
2018-02-23T00:54:22.251Z,24.30
2018-02-23T00:55:22.261Z,24.10
2018-02-23T00:56:22.260Z,23.90
2018-02-23T00:57:22.255Z,23.60
2018-02-23T00:58:22.256Z,23.40
2018-02-23T00:59:22.250Z,23.60
2018-02-23T01:00:22.261Z,23.80
2018-02-23T01:01:22.255Z,24.00
2018-02-23T01:02:22.261Z,24.50
2018-02-23T01:03:22.259Z,24.00
2018-02-23T01:04:22.264Z,23.90
2018-02-23T01:05:22.264Z,24.70
2018-02-23T01:06:22.260Z,24.10
2018-02-23T01:07:22.262Z,24.30
2018-02-23T01:08:22.260Z,24.20
2018-02-23T01:09:22.263Z,25.30
2018-02-23T01:10:22.263Z,24.40
2018-02-23T01:11:22.275Z,25.00
2018-02-23T01:12:22.267Z,25.00
2018-02-23T01:13:22.270Z,25.30
2018-02-23T01:14:22.266Z,24.80
2018-02-23T01:15:22.273Z,25.10
2018-02-23T01:16:22.273Z,25.20
2018-02-23T01:17:22.278Z,25.30
2018-02-23T01:18:22.274Z,25.80
2018-02-23T01:19:22.276Z,24.90
2018-02-23T01:20:22.282Z,24.80
2018-02-23T01:21:22.275Z,25.60
2018-02-23T01:22:22.280Z,25.40
2018-02-23T01:23:22.288Z,25.80
2018-02-23T01:24:22.273Z,26.10
2018-02-23T01:25:22.277Z,25.80
2018-02-23T01:26:22.283Z,26.30
2018-02-23T01:27:22.283Z,26.60
2018-02-23T01:28:22.280Z,27.20
2018-02-23T01:29:22.292Z,26.70
2018-02-23T01:30:22.286Z,25.80
2018-02-23T01:31:22.288Z,27.90
2018-02-23T01:32:22.286Z,26.90
2018-02-23T01:33:22.289Z,26.90
2018-02-23T01:34:22.302Z,27.50
2018-02-23T01:35:22.293Z,26.30
2018-02-23T01:36:22.291Z,26.80
2018-02-23T01:37:22.289Z,27.00
2018-02-23T01:38:22.297Z,27.70
2018-02-23T01:39:22.296Z,27.30
2018-02-23T01:40:22.301Z,28.40
2018-02-23T01:41:22.292Z,27.30
2018-02-23T01:42:22.293Z,28.10
2018-02-23T01:43:22.301Z,28.10
2018-02-23T01:44:22.300Z,28.70
2018-02-23T01:45:22.299Z,27.90
2018-02-23T01:46:22.300Z,28.20
2018-02-23T01:47:22.297Z,27.50
2018-02-23T01:48:22.301Z,28.80
2018-02-23T01:49:22.300Z,28.30
2018-02-23T01:50:22.301Z,28.80
2018-02-23T01:51:22.310Z,28.40
2018-02-23T01:52:22.305Z,29.20
2018-02-23T01:53:22.306Z,28.50
2018-02-23T01:54:22.305Z,28.60
2018-02-23T01:55:22.309Z,29.20
2018-02-23T01:56:22.311Z,29.40
2018-02-23T01:57:22.308Z,28.50
2018-02-23T01:58:22.305Z,28.70
2018-02-23T01:59:22.310Z,28.10
2018-02-23T02:00:22.311Z,29.70
2018-02-23T02:01:22.309Z,28.90
2018-02-23T02:02:22.315Z,29.30
2018-02-23T02:03:22.316Z,29.60
2018-02-23T02:04:22.321Z,29.80
2018-02-23T02:05:22.320Z,29.80
2018-02-23T02:06:22.317Z,30.70
2018-02-23T02:07:22.314Z,31.00
2018-02-23T02:08:22.333Z,31.40
2018-02-23T02:09:22.320Z,29.80
2018-02-23T02:10:22.317Z,31.00
2018-02-23T02:11:22.321Z,30.50
2018-02-23T02:12:22.332Z,31.50
2018-02-23T02:13:22.324Z,30.80
2018-02-23T02:14:22.321Z,31.10
2018-02-23T02:15:22.325Z,31.70
2018-02-23T02:16:22.326Z,31.70
2018-02-23T02:17:22.332Z,30.90
2018-02-23T02:18:22.328Z,31.00
2018-02-23T02:19:22.333Z,31.80
2018-02-23T02:20:22.330Z,31.10
2018-02-23T02:21:22.332Z,31.50
2018-02-23T02:22:22.327Z,32.20
2018-02-23T02:23:22.337Z,32.40
2018-02-23T02:24:22.330Z,31.70
2018-02-23T02:25:22.335Z,32.40
2018-02-23T02:26:22.336Z,33.70
2018-02-23T02:27:22.335Z,33.30
2018-02-23T02:28:22.338Z,32.40
2018-02-23T02:29:22.342Z,32.30
2018-02-23T02:30:22.340Z,33.40
2018-02-23T02:31:22.336Z,33.70
2018-02-23T02:32:22.338Z,32.70
2018-02-23T02:33:22.338Z,33.00
2018-02-23T02:34:22.345Z,34.20
2018-02-23T02:35:22.345Z,33.20
2018-02-23T02:36:22.347Z,32.60
2018-02-23T02:37:22.343Z,33.90
2018-02-23T02:38:22.346Z,34.30
2018-02-23T02:39:22.351Z,34.10
2018-02-23T02:40:22.348Z,33.30
2018-02-23T02:41:22.345Z,34.00
2018-02-23T02:42:22.356Z,35.40
2018-02-23T02:43:22.352Z,33.50
2018-02-23T02:44:22.355Z,33.80
2018-02-23T02:45:22.346Z,34.80
2018-02-23T02:46:22.354Z,33.80
2018-02-23T02:47:22.359Z,34.00
2018-02-23T02:48:22.417Z,33.60
2018-02-23T02:49:22.354Z,34.60
2018-02-23T02:50:22.354Z,34.40
2018-02-23T02:51:22.359Z,33.90
2018-02-23T02:52:23.040Z,35.00
2018-02-23T02:53:22.360Z,35.20
2018-02-23T02:54:22.359Z,35.90
2018-02-23T02:55:22.361Z,36.10
2018-02-23T02:56:22.364Z,34.80
2018-02-23T02:57:22.370Z,35.50
2018-02-23T02:58:22.365Z,34.80
2018-02-23T02:59:22.365Z,35.70
2018-02-23T03:00:22.364Z,35.10
2018-02-23T03:01:22.361Z,35.90
2018-02-23T03:02:22.367Z,37.00
2018-02-23T03:03:22.367Z,35.40
2018-02-23T03:04:22.368Z,35.10
2018-02-23T03:05:22.370Z,36.20
2018-02-23T03:06:22.368Z,36.80
2018-02-23T03:07:22.368Z,36.70
2018-02-23T03:08:22.375Z,38.70
2018-02-23T03:09:22.378Z,36.60
2018-02-23T03:10:22.389Z,37.30
2018-02-23T03:11:22.374Z,37.10
2018-02-23T03:12:22.376Z,37.60
2018-02-23T03:13:22.375Z,37.40
2018-02-23T03:14:22.380Z,37.10
2018-02-23T03:15:22.379Z,37.50
2018-02-23T03:16:22.388Z,38.90
2018-02-23T03:17:22.372Z,38.90
2018-02-23T03:18:22.383Z,38.20
2018-02-23T03:19:22.376Z,38.00
2018-02-23T03:20:22.388Z,38.10
2018-02-23T03:21:22.383Z,37.90
2018-02-23T03:22:22.379Z,38.40
2018-02-23T03:23:22.388Z,38.50
2018-02-23T03:24:22.416Z,39.10
2018-02-23T03:25:22.382Z,39.20
2018-02-23T03:26:22.384Z,39.70
2018-02-23T03:27:22.392Z,41.20
2018-02-23T03:28:22.395Z,41.30
2018-02-23T03:29:22.391Z,41.70
2018-02-23T03:30:22.385Z,41.00
2018-02-23T03:31:22.391Z,41.80
2018-02-23T03:32:22.396Z,41.70
2018-02-23T03:33:22.395Z,41.80
2018-02-23T03:34:22.385Z,42.60
2018-02-23T03:35:22.406Z,42.10
2018-02-23T03:36:22.391Z,43.40
2018-02-23T03:37:22.397Z,41.50
2018-02-23T03:38:22.388Z,43.40
2018-02-23T03:39:22.392Z,43.00
2018-02-23T03:40:22.396Z,43.40
2018-02-23T03:41:22.388Z,43.80
2018-02-23T03:42:22.391Z,43.70
2018-02-23T03:43:22.399Z,44.30
2018-02-23T03:44:22.390Z,43.60
2018-02-23T03:45:22.390Z,44.20
2018-02-23T03:46:22.397Z,44.90
2018-02-23T03:47:22.403Z,43.30
2018-02-23T03:48:22.396Z,43.70
2018-02-23T03:49:22.394Z,46.40
2018-02-23T03:50:22.395Z,44.20
2018-02-23T03:51:22.395Z,44.30
2018-02-23T03:52:22.402Z,44.70
2018-02-23T03:53:22.404Z,46.40
2018-02-23T03:54:22.406Z,45.00
2018-02-23T03:55:22.402Z,46.50
2018-02-23T03:56:22.398Z,46.50
2018-02-23T03:57:22.403Z,45.30
2018-02-23T03:58:22.394Z,45.90
2018-02-23T03:59:22.400Z,46.30
2018-02-23T04:00:22.410Z,46.90
2018-02-23T04:01:22.400Z,45.90
2018-02-23T04:02:22.399Z,47.30
2018-02-23T04:03:22.399Z,47.60
2018-02-23T04:04:22.404Z,47.30
2018-02-23T04:05:22.425Z,46.50
2018-02-23T04:06:22.399Z,47.00
2018-02-23T04:07:22.399Z,47.20
2018-02-23T04:08:22.404Z,47.80
2018-02-23T04:09:22.402Z,49.10
2018-02-23T04:10:22.403Z,48.10
2018-02-23T04:11:22.400Z,47.50
2018-02-23T04:12:22.402Z,47.60
2018-02-23T04:13:22.414Z,48.50
2018-02-23T04:14:22.403Z,46.50
2018-02-23T04:15:22.407Z,46.50
2018-02-23T04:16:22.413Z,46.50
2018-02-23T04:17:22.402Z,47.60
2018-02-23T04:18:22.413Z,47.60
2018-02-23T04:19:22.403Z,46.70
2018-02-23T04:20:22.402Z,46.60
2018-02-23T04:21:22.400Z,47.70
2018-02-23T04:22:22.405Z,47.40
2018-02-23T04:23:22.407Z,46.50
2018-02-23T04:24:22.401Z,48.20
2018-02-23T04:25:22.399Z,47.90
2018-02-23T04:26:22.398Z,48.80
2018-02-23T04:27:22.406Z,48.40
2018-02-23T04:28:22.404Z,46.80
2018-02-23T04:29:22.402Z,48.10
2018-02-23T04:30:22.404Z,46.90
2018-02-23T04:31:22.404Z,47.70
2018-02-23T04:32:22.403Z,47.80
2018-02-23T04:33:22.408Z,46.80
2018-02-23T04:34:22.403Z,48.40
2018-02-23T04:35:22.402Z,49.00
2018-02-23T04:36:22.405Z,47.70
2018-02-23T04:37:22.404Z,50.10
2018-02-23T04:38:22.408Z,48.00
2018-02-23T04:39:22.415Z,47.60
2018-02-23T04:40:22.406Z,46.60
2018-02-23T04:41:22.415Z,47.60
2018-02-23T04:42:22.401Z,47.30
2018-02-23T04:43:22.407Z,46.80
2018-02-23T04:44:22.407Z,47.00
2018-02-23T04:45:22.422Z,48.40
2018-02-23T04:46:22.401Z,47.00
2018-02-23T04:47:22.413Z,47.70
2018-02-23T04:48:22.406Z,46.30
2018-02-23T04:49:22.407Z,46.90
2018-02-23T04:50:22.400Z,47.10
2018-02-23T04:51:22.403Z,47.20
2018-02-23T04:52:22.404Z,47.20
2018-02-23T04:53:22.408Z,48.20
2018-02-23T04:54:22.395Z,47.60
2018-02-23T04:55:22.402Z,48.00
2018-02-23T04:56:22.400Z,46.10
2018-02-23T04:57:22.401Z,47.90
2018-02-23T04:58:22.401Z,48.30
2018-02-23T04:59:22.412Z,47.20
2018-02-23T05:00:22.399Z,46.00
2018-02-23T05:01:22.401Z,46.90
2018-02-23T05:02:22.410Z,45.50
2018-02-23T05:03:22.402Z,46.80
2018-02-23T05:04:22.403Z,45.70
2018-02-23T05:05:22.403Z,44.70
2018-02-23T05:06:22.402Z,45.30
2018-02-23T05:07:22.416Z,47.00
2018-02-23T05:08:22.404Z,44.30
2018-02-23T05:09:22.400Z,47.00
2018-02-23T05:10:22.396Z,46.80
2018-02-23T05:11:22.396Z,45.70
2018-02-23T05:12:22.402Z,45.70
2018-02-23T05:13:22.410Z,46.30
2018-02-23T05:14:22.409Z,44.90
2018-02-23T05:15:22.401Z,45.60
2018-02-23T05:16:22.397Z,45.10
2018-02-23T05:17:22.402Z,45.00
2018-02-23T05:18:22.399Z,44.50
2018-02-23T05:19:22.395Z,45.40
2018-02-23T05:20:22.396Z,44.90
2018-02-23T05:21:22.394Z,44.50
2018-02-23T05:22:22.398Z,46.00
2018-02-23T05:23:22.393Z,45.60
2018-02-23T05:24:22.396Z,43.30
2018-02-23T05:25:22.395Z,44.90
2018-02-23T05:26:22.396Z,43.20
2018-02-23T05:27:22.395Z,43.60
2018-02-23T05:28:22.396Z,43.80
2018-02-23T05:29:22.395Z,44.60
2018-02-23T05:30:22.396Z,44.40
2018-02-23T05:31:22.392Z,43.90
2018-02-23T05:32:22.394Z,42.50
2018-02-23T05:33:22.392Z,44.10
2018-02-23T05:34:22.390Z,42.70
2018-02-23T05:35:22.395Z,42.90
2018-02-23T05:36:22.401Z,43.80
2018-02-23T05:37:23.063Z,43.30
2018-02-23T05:38:22.387Z,43.60
2018-02-23T05:39:22.390Z,43.90
2018-02-23T05:40:22.388Z,42.80
2018-02-23T05:41:22.391Z,43.00
2018-02-23T05:42:22.392Z,43.40
2018-02-23T05:43:22.385Z,42.40
2018-02-23T05:44:22.453Z,44.70
2018-02-23T05:45:22.442Z,43.00
2018-02-23T05:46:22.391Z,42.60
2018-02-23T05:47:22.382Z,44.00
2018-02-23T05:48:22.381Z,45.30
2018-02-23T05:49:22.384Z,43.00
2018-02-23T05:50:22.392Z,43.50
2018-02-23T05:51:22.433Z,42.30
2018-02-23T05:52:22.409Z,41.90
2018-02-23T05:53:22.384Z,40.80
2018-02-23T05:54:22.385Z,41.40
2018-02-23T05:55:22.387Z,43.00
2018-02-23T05:56:22.391Z,43.40
2018-02-23T05:57:22.380Z,42.90
2018-02-23T05:58:22.378Z,42.30
2018-02-23T05:59:22.378Z,42.90
2018-02-23T06:00:22.379Z,43.60
2018-02-23T06:01:22.379Z,42.80
2018-02-23T06:02:22.377Z,42.80
2018-02-23T06:03:22.380Z,43.30
2018-02-23T06:04:22.406Z,42.30
2018-02-23T06:05:22.381Z,41.50
2018-02-23T06:06:22.374Z,42.80
2018-02-23T06:07:22.376Z,41.80
2018-02-23T06:08:22.375Z,41.50
2018-02-23T06:09:22.373Z,41.50
2018-02-23T06:10:22.379Z,42.00
2018-02-23T06:11:22.375Z,41.40
2018-02-23T06:12:24.425Z,40.90
2018-02-23T06:13:22.963Z,41.60
2018-02-23T06:14:23.929Z,41.60
2018-02-23T06:15:22.374Z,40.30
2018-02-23T06:16:22.373Z,40.50
2018-02-23T06:17:22.372Z,39.90
2018-02-23T06:18:22.373Z,40.50
2018-02-23T06:19:22.370Z,40.90
2018-02-23T06:20:22.368Z,39.70
2018-02-23T06:21:22.371Z,39.80
2018-02-23T06:22:22.367Z,39.20
2018-02-23T06:23:22.371Z,37.50
2018-02-23T06:24:23.070Z,37.90
2018-02-23T06:25:22.369Z,37.50
2018-02-23T06:26:22.364Z,36.60
2018-02-23T06:27:22.364Z,36.10
2018-02-23T06:28:22.368Z,36.20
2018-02-23T06:29:22.369Z,35.50
2018-02-23T06:30:22.365Z,37.50
2018-02-23T06:31:22.361Z,37.10
2018-02-23T06:32:22.364Z,35.50
2018-02-23T06:33:22.367Z,36.10
2018-02-23T06:34:22.361Z,36.40
2018-02-23T06:35:22.362Z,36.20
2018-02-23T06:36:22.360Z,35.60
2018-02-23T06:37:22.361Z,35.30
2018-02-23T06:38:22.354Z,37.30
2018-02-23T06:39:22.359Z,36.20
2018-02-23T06:40:22.391Z,34.60
2018-02-23T06:41:22.356Z,36.80
2018-02-23T06:42:22.358Z,33.80
2018-02-23T06:43:22.355Z,34.30
2018-02-23T06:44:22.371Z,35.50
2018-02-23T06:45:22.352Z,35.40
2018-02-23T06:46:22.361Z,35.50
2018-02-23T06:47:22.355Z,36.90
2018-02-23T06:48:22.356Z,32.90
2018-02-23T06:49:22.351Z,34.20
2018-02-23T06:50:22.359Z,34.60
2018-02-23T06:51:22.363Z,34.10
2018-02-23T06:52:22.357Z,34.10
2018-02-23T06:53:22.350Z,33.60
2018-02-23T06:54:22.362Z,34.80
2018-02-23T06:55:22.349Z,34.40
2018-02-23T06:56:22.356Z,33.40
2018-02-23T06:57:22.353Z,31.90
2018-02-23T06:58:22.348Z,33.50
2018-02-23T06:59:22.347Z,32.70
2018-02-23T07:00:22.390Z,32.20
2018-02-23T07:01:22.356Z,33.80
2018-02-23T07:02:22.353Z,33.40
2018-02-23T07:03:22.349Z,32.90
2018-02-23T07:04:22.344Z,32.70
2018-02-23T07:05:22.347Z,33.20
2018-02-23T07:06:22.344Z,31.80
2018-02-23T07:07:22.352Z,33.00
2018-02-23T07:08:22.345Z,32.80
2018-02-23T07:09:22.344Z,33.20
2018-02-23T07:10:22.342Z,31.20
2018-02-23T07:11:22.348Z,32.70
2018-02-23T07:12:22.341Z,33.30
2018-02-23T07:13:22.340Z,30.80
2018-02-23T07:14:22.341Z,31.20
2018-02-23T07:15:22.342Z,30.90
2018-02-23T07:16:22.343Z,29.20
2018-02-23T07:17:22.342Z,31.60
2018-02-23T07:18:22.342Z,30.70
2018-02-23T07:19:22.343Z,31.30
2018-02-23T07:20:22.345Z,30.50
2018-02-23T07:21:22.343Z,29.30
2018-02-23T07:22:22.344Z,30.20
2018-02-23T07:23:22.339Z,29.50
2018-02-23T07:24:22.335Z,27.80
2018-02-23T07:25:22.338Z,28.80
2018-02-23T07:26:22.336Z,28.40
2018-02-23T07:27:22.341Z,28.70
2018-02-23T07:28:22.382Z,28.10
2018-02-23T07:29:22.337Z,27.70
2018-02-23T07:30:22.339Z,28.20
2018-02-23T07:31:22.339Z,28.70
2018-02-23T07:32:22.339Z,27.20
2018-02-23T07:33:22.339Z,27.30
2018-02-23T07:34:22.334Z,28.30
2018-02-23T07:35:22.334Z,27.70
2018-02-23T07:36:22.335Z,26.80
2018-02-23T07:37:22.334Z,26.10
2018-02-23T07:38:22.333Z,26.30
2018-02-23T07:39:22.332Z,26.10
2018-02-23T07:40:22.339Z,26.10
2018-02-23T07:41:22.346Z,28.10
2018-02-23T07:42:22.337Z,26.70
2018-02-23T07:43:22.334Z,25.70
2018-02-23T07:44:22.337Z,25.90
2018-02-23T07:45:22.337Z,27.40
2018-02-23T07:46:22.334Z,25.60
2018-02-23T07:47:22.332Z,25.20
2018-02-23T07:48:22.337Z,25.10
2018-02-23T07:49:22.335Z,24.00
2018-02-23T07:50:22.371Z,24.70
2018-02-23T07:51:22.331Z,25.30
2018-02-23T07:52:22.335Z,25.10
2018-02-23T07:53:22.334Z,25.20
2018-02-23T07:54:22.330Z,23.00
2018-02-23T07:55:22.337Z,22.80
2018-02-23T07:56:22.334Z,21.00
2018-02-23T07:57:22.333Z,21.70
2018-02-23T07:58:22.333Z,21.30
2018-02-23T07:59:22.345Z,21.10
2018-02-23T08:00:22.339Z,19.70
2018-02-23T08:01:22.334Z,19.70
2018-02-23T08:02:22.339Z,19.80
2018-02-23T08:03:22.346Z,20.40
2018-02-23T08:04:22.332Z,19.30
2018-02-23T08:05:22.334Z,19.10
2018-02-23T08:06:22.334Z,17.90
2018-02-23T08:07:22.339Z,18.70
2018-02-23T08:08:22.335Z,17.60
2018-02-23T08:09:22.333Z,15.90
2018-02-23T08:10:22.340Z,14.30
2018-02-23T08:11:22.339Z,15.60
2018-02-23T08:12:22.346Z,15.90
2018-02-23T08:13:22.348Z,13.80
2018-02-23T08:14:22.380Z,13.10
2018-02-23T08:15:22.353Z,12.60
2018-02-23T08:16:22.357Z,13.50
2018-02-23T08:17:22.360Z,12.80
2018-02-23T08:18:22.370Z,12.40
2018-02-23T08:19:22.370Z,12.70
2018-02-23T08:20:22.377Z,12.40
2018-02-23T08:21:22.380Z,11.70
2018-02-23T08:22:22.385Z,12.60
2018-02-23T08:23:22.391Z,11.90
2018-02-23T08:24:22.399Z,12.40
2018-02-23T08:25:22.399Z,11.60
2018-02-23T08:26:22.407Z,11.40
2018-02-23T08:27:22.416Z,12.70
2018-02-23T08:28:22.415Z,12.00
2018-02-23T08:29:22.425Z,12.10
2018-02-23T08:30:22.435Z,12.20
2018-02-23T08:31:22.434Z,12.40
2018-02-23T08:32:22.442Z,12.00
2018-02-23T08:33:22.443Z,12.60
2018-02-23T08:34:22.443Z,12.20
2018-02-23T08:35:22.455Z,12.10
2018-02-23T08:36:22.455Z,12.30
2018-02-23T08:37:22.464Z,12.90
2018-02-23T08:38:22.463Z,12.30
2018-02-23T08:39:22.471Z,12.60
2018-02-23T08:40:22.474Z,12.80
2018-02-23T08:41:22.478Z,13.00
2018-02-23T08:42:22.482Z,13.20
2018-02-23T08:43:22.486Z,12.50
2018-02-23T08:44:22.551Z,13.10
2018-02-23T08:45:22.491Z,13.50
2018-02-23T08:46:22.490Z,13.60
2018-02-23T08:47:22.497Z,13.20
2018-02-23T08:48:22.500Z,12.60
2018-02-23T08:49:22.503Z,13.00
2018-02-23T08:50:22.501Z,13.40
2018-02-23T08:51:22.503Z,13.70
2018-02-23T08:52:22.506Z,13.50
2018-02-23T08:53:22.511Z,13.10
2018-02-23T08:54:22.506Z,13.90
2018-02-23T08:55:22.511Z,14.50
2018-02-23T08:56:22.518Z,13.50
2018-02-23T08:57:22.520Z,13.00
2018-02-23T08:58:22.520Z,12.30
2018-02-23T08:59:22.523Z,13.40
2018-02-23T09:00:22.521Z,13.30
2018-02-23T09:01:22.560Z,13.40
2018-02-23T09:02:22.526Z,12.90
2018-02-23T09:03:22.528Z,13.70
2018-02-23T09:04:22.528Z,13.10
2018-02-23T09:05:22.533Z,13.10
2018-02-23T09:06:22.535Z,13.60
2018-02-23T09:07:22.538Z,13.00
2018-02-23T09:08:22.537Z,13.20
2018-02-23T09:09:22.538Z,13.20
2018-02-23T09:10:22.542Z,12.70
2018-02-23T09:11:22.545Z,13.10
2018-02-23T09:12:22.537Z,12.70
2018-02-23T09:13:22.540Z,12.40
2018-02-23T09:14:22.542Z,13.50
2018-02-23T09:15:22.545Z,13.90
2018-02-23T09:16:22.555Z,13.80
2018-02-23T09:17:22.548Z,13.70
2018-02-23T09:18:23.103Z,13.20
2018-02-23T09:19:22.567Z,13.50
2018-02-23T09:20:22.564Z,13.50
2018-02-23T09:21:22.566Z,12.60
2018-02-23T09:22:22.567Z,12.70
2018-02-23T09:23:22.567Z,12.90
2018-02-23T09:24:22.566Z,13.10
2018-02-23T09:25:22.571Z,13.20
2018-02-23T09:26:22.570Z,12.50
2018-02-23T09:27:22.577Z,11.80
2018-02-23T09:28:22.576Z,13.00
2018-02-23T09:29:22.580Z,12.80
2018-02-23T09:30:22.578Z,12.90
2018-02-23T09:31:22.583Z,13.50
2018-02-23T09:32:22.580Z,12.40
2018-02-23T09:33:22.598Z,13.00
2018-02-23T09:34:22.588Z,12.90
2018-02-23T09:35:22.602Z,13.10
2018-02-23T09:36:22.592Z,13.00
2018-02-23T09:37:22.594Z,12.50
2018-02-23T09:38:22.604Z,12.40
2018-02-23T09:39:22.600Z,12.00
2018-02-23T09:40:22.609Z,12.90
2018-02-23T09:41:22.604Z,12.60
2018-02-23T09:42:22.613Z,11.60
2018-02-23T09:43:22.611Z,11.80
2018-02-23T09:44:22.619Z,12.50
2018-02-23T09:45:22.616Z,11.50
2018-02-23T09:46:22.653Z,11.80
2018-02-23T09:47:22.626Z,11.60
2018-02-23T09:48:22.634Z,11.00
2018-02-23T09:49:22.630Z,11.30
2018-02-23T09:50:22.635Z,10.80
2018-02-23T09:51:22.637Z,11.20
2018-02-23T09:52:22.641Z,10.70
2018-02-23T09:53:22.645Z,11.50
2018-02-23T09:54:22.650Z,11.00
2018-02-23T09:55:22.656Z,10.80
2018-02-23T09:56:23.616Z,10.30
2018-02-23T09:57:22.670Z,9.60
2018-02-23T09:58:22.665Z,10.40
2018-02-23T09:59:22.675Z,10.40
2018-02-23T10:00:22.678Z,10.10
2018-02-23T10:01:22.691Z,9.50
2018-02-23T10:02:22.685Z,8.90
2018-02-23T10:03:22.693Z,10.00
2018-02-23T10:04:22.703Z,9.90
2018-02-23T10:05:22.711Z,9.50
2018-02-23T10:06:22.712Z,9.30
2018-02-23T10:07:22.719Z,8.80
2018-02-23T10:08:22.724Z,8.70
2018-02-23T10:09:22.729Z,8.70
2018-02-23T10:10:22.739Z,8.70
2018-02-23T10:11:22.746Z,8.10
2018-02-23T10:12:22.747Z,9.40
2018-02-23T10:13:22.757Z,8.80
2018-02-23T10:14:22.768Z,8.70
2018-02-23T10:15:22.769Z,8.60
2018-02-23T10:16:22.771Z,7.80
2018-02-23T10:17:22.778Z,8.40
2018-02-23T10:18:22.788Z,8.90
2018-02-23T10:19:22.796Z,8.50
2018-02-23T10:20:22.796Z,8.30
2018-02-23T10:21:22.801Z,8.30
2018-02-23T10:22:22.812Z,8.10
2018-02-23T10:23:22.818Z,8.10
2018-02-23T10:24:22.822Z,8.60
2018-02-23T10:25:22.836Z,8.10
2018-02-23T10:26:22.830Z,7.60
2018-02-23T10:27:22.865Z,8.00
2018-02-23T10:28:22.852Z,7.30
2018-02-23T10:29:22.855Z,7.40
2018-02-23T10:30:22.857Z,7.10
2018-02-23T10:31:22.862Z,6.90
2018-02-23T10:32:22.864Z,6.80
2018-02-23T10:33:22.875Z,7.40
2018-02-23T10:34:22.880Z,7.70
2018-02-23T10:35:22.889Z,7.70
2018-02-23T10:36:22.894Z,7.30
2018-02-23T10:37:22.900Z,7.10
2018-02-23T10:38:22.905Z,7.00
2018-02-23T10:39:22.912Z,7.40
2018-02-23T10:40:22.915Z,7.00
2018-02-23T10:41:22.917Z,6.70
2018-02-23T10:42:22.925Z,6.60
2018-02-23T10:43:22.935Z,6.80
2018-02-23T10:44:22.937Z,6.40
2018-02-23T10:45:22.941Z,6.60
2018-02-23T10:46:22.948Z,6.40
2018-02-23T10:47:22.950Z,6.10
2018-02-23T10:48:22.959Z,6.30
2018-02-23T10:49:22.964Z,6.10
2018-02-23T10:50:22.968Z,6.50
2018-02-23T10:51:22.975Z,5.70
2018-02-23T10:52:22.973Z,5.80
2018-02-23T10:53:22.988Z,5.90
2018-02-23T10:54:22.989Z,6.10
2018-02-23T10:55:23.002Z,6.00
2018-02-23T10:56:23.000Z,6.00
2018-02-23T10:57:23.015Z,5.40
2018-02-23T10:58:23.014Z,5.50
2018-02-23T10:59:23.016Z,5.60
2018-02-23T11:00:23.028Z,5.40
2018-02-23T11:01:23.040Z,5.80
2018-02-23T11:02:23.049Z,5.70
2018-02-23T11:03:23.041Z,6.40
2018-02-23T11:04:23.057Z,5.80
2018-02-23T11:05:23.055Z,6.10
2018-02-23T11:06:23.063Z,6.00
2018-02-23T11:07:23.067Z,5.40
2018-02-23T11:08:23.077Z,5.80
2018-02-23T11:09:23.078Z,5.50
2018-02-23T11:10:23.089Z,5.70
2018-02-23T11:11:23.094Z,6.10
2018-02-23T11:12:23.100Z,5.60
2018-02-23T11:13:23.102Z,5.60
2018-02-23T11:14:23.114Z,5.90
2018-02-23T11:15:23.121Z,6.30
2018-02-23T11:16:23.122Z,6.20
2018-02-23T11:17:23.129Z,6.30
2018-02-23T11:18:23.138Z,7.00
2018-02-23T11:19:23.145Z,6.90
2018-02-23T11:20:23.147Z,7.20
2018-02-23T11:21:23.155Z,6.80
2018-02-23T11:22:23.158Z,6.40
2018-02-23T11:23:23.163Z,7.40
2018-02-23T11:24:23.174Z,7.10
2018-02-23T11:25:23.182Z,6.50
2018-02-23T11:26:23.180Z,6.90
2018-02-23T11:27:23.188Z,7.20
2018-02-23T11:28:23.196Z,7.00
2018-02-23T11:29:23.201Z,6.50
2018-02-23T11:30:23.243Z,6.80
2018-02-23T11:31:23.209Z,6.70
2018-02-23T11:32:23.219Z,7.20
2018-02-23T11:33:23.220Z,6.90
2018-02-23T11:34:23.223Z,7.80
2018-02-23T11:35:23.231Z,7.70
2018-02-23T11:36:23.240Z,7.00
2018-02-23T11:37:23.241Z,7.90
2018-02-23T11:38:23.247Z,7.10
2018-02-23T11:39:23.254Z,7.80
2018-02-23T11:40:23.257Z,7.30
2018-02-23T11:41:23.270Z,7.80
2018-02-23T11:42:23.272Z,8.20
2018-02-23T11:43:23.272Z,7.90
2018-02-23T11:44:23.274Z,7.70
2018-02-23T11:45:23.281Z,7.80
2018-02-23T11:46:23.289Z,7.60
2018-02-23T11:47:23.294Z,8.50
2018-02-23T11:48:23.292Z,7.80
2018-02-23T11:49:23.300Z,8.60
2018-02-23T11:50:23.354Z,8.70
2018-02-23T11:51:23.311Z,8.40
2018-02-23T11:52:23.318Z,8.60
2018-02-23T11:53:23.319Z,8.50
2018-02-23T11:54:23.323Z,8.40
2018-02-23T11:55:23.326Z,9.00
2018-02-23T11:56:23.341Z,8.90
2018-02-23T11:57:23.335Z,8.80
2018-02-23T11:58:23.345Z,8.70
2018-02-23T11:59:23.352Z,9.60
2018-02-23T12:00:23.353Z,9.10
2018-02-23T12:01:23.358Z,9.00
2018-02-23T12:02:23.361Z,8.90
2018-02-23T12:03:23.364Z,9.20
2018-02-23T12:04:23.369Z,9.40
2018-02-23T12:05:23.372Z,8.90
2018-02-23T12:06:23.378Z,9.60
2018-02-23T12:07:23.383Z,9.40
2018-02-23T12:08:23.386Z,9.30
2018-02-23T12:09:23.390Z,10.00
2018-02-23T12:10:23.389Z,9.90
2018-02-23T12:11:23.395Z,10.50
2018-02-23T12:12:23.395Z,9.80
2018-02-23T12:13:23.397Z,9.90
2018-02-23T12:14:23.403Z,10.40
2018-02-23T12:15:23.409Z,10.10
2018-02-23T12:16:23.413Z,10.50
2018-02-23T12:17:23.426Z,10.80
2018-02-23T12:18:23.420Z,10.50
2018-02-23T12:19:23.428Z,10.70
2018-02-23T12:20:23.424Z,10.60
2018-02-23T12:21:23.495Z,10.30
2018-02-23T12:22:23.430Z,10.40
2018-02-23T12:23:23.439Z,10.10
2018-02-23T12:24:23.439Z,10.70
2018-02-23T12:25:23.447Z,10.30
2018-02-23T12:26:23.448Z,10.70
2018-02-23T12:27:23.453Z,10.90
2018-02-23T12:28:23.480Z,10.60
2018-02-23T12:29:23.456Z,10.80
2018-02-23T12:30:23.456Z,11.60
2018-02-23T12:31:23.462Z,10.60
2018-02-23T12:32:23.467Z,10.80
2018-02-23T12:33:23.463Z,10.60
2018-02-23T12:34:23.466Z,11.70
2018-02-23T12:35:23.512Z,10.30
2018-02-23T12:36:23.474Z,10.30
2018-02-23T12:37:23.475Z,10.50
2018-02-23T12:38:23.475Z,10.30
2018-02-23T12:39:23.475Z,10.60
2018-02-23T12:40:23.483Z,10.00
2018-02-23T12:41:23.480Z,10.20
2018-02-23T12:42:23.486Z,10.30
2018-02-23T12:43:23.490Z,10.90
2018-02-23T12:44:23.494Z,10.10
2018-02-23T12:45:23.499Z,9.80
2018-02-23T12:46:23.501Z,10.50
2018-02-23T12:47:23.499Z,10.10
2018-02-23T12:48:23.506Z,9.80
2018-02-23T12:49:23.502Z,10.30
2018-02-23T12:50:23.505Z,10.20
2018-02-23T12:51:23.521Z,10.00
2018-02-23T12:52:23.516Z,10.50
2018-02-23T12:53:23.513Z,10.60
2018-02-23T12:54:23.516Z,10.70
2018-02-23T12:55:23.520Z,10.20
2018-02-23T12:56:23.520Z,10.60
2018-02-23T12:57:23.524Z,9.90